Time;durP1;ratioP1;P1;durP2;ratioP2;P2;SDS_P1;SDS_P2;PMS_P1;PMS_P2;Temp;Humidity;BMP_temperature;BMP_pressure;BME280_temperature;BME280_humidity;BME280_pressure;Samples;Min_cycle;Max_cycle;Signal;HPM_P1;HPM_P2
2023/09/01 00:01:11;;;;;;;10.48;6.53;;;;;;;;;;5031614;28;20891;-66
2023/09/01 00:03:39;;;;;;;8.15;6.68;;;;;;;;;;5027591;28;20426;-66
2023/09/01 00:06:16;;;;;;;9.63;6.63;;;;;;;;;;5026155;28;20924;-67
2023/09/01 00:08:43;;;;;;;9.27;6.53;;;;;;;;;;5027365;28;20429;-66
2023/09/01 00:11:13;;;;;;;10.70;6.32;;;;;;;;;;5031095;28;20490;-67
2023/09/01 00:13:40;;;;;;;6.88;5.95;;;;;;;;;;5031191;28;20434;-66
2023/09/01 00:16:08;;;;;;;6.38;5.72;;;;;;;;;;5046193;28;20989;-67
2023/09/01 00:18:36;;;;;;;8.55;5.38;;;;;;;;;;5030967;28;20425;-67
2023/09/01 00:21:04;;;;;;;6.45;5.07;;;;;;;;;;5032086;28;20854;-67
2023/09/01 00:23:31;;;;;;;6.25;5.50;;;;;;;;;;5026704;28;20429;-66
2023/09/01 00:26:01;;;;;;;5.50;4.90;;;;;;;;;;5031403;28;20484;-67
2023/09/01 00:28:28;;;;;;;7.03;5.30;;;;;;;;;;5029751;28;20430;-66
2023/09/01 00:30:59;;;;;;;6.70;5.25;;;;;;;;;;5027727;28;20890;-66
2023/09/01 00:33:35;;;;;;;6.93;5.13;;;;;;;;;;5027253;28;20566;-67
2023/09/01 00:36:03;;;;;;;6.95;5.28;;;;;;;;;;5030731;28;20909;-66
2023/09/01 00:38:32;;;;;;;5.88;5.22;;;;;;;;;;5043605;28;20514;-66
2023/09/01 00:40:59;;;;;;;6.75;4.90;;;;;;;;;;5033649;28;20541;-66
2023/09/01 00:43:26;;;;;;;6.03;4.45;;;;;;;;;;5025829;28;20496;-66
2023/09/01 00:45:56;;;;;;;7.05;4.50;;;;;;;;;;5031431;28;20428;-66
2023/09/01 00:48:24;;;;;;;4.68;4.10;;;;;;;;;;5032573;28;20466;-66
2023/09/01 00:50:51;;;;;;;5.28;3.85;;;;;;;;;;5034390;28;20443;-66
2023/09/01 00:53:19;;;;;;;5.53;4.40;;;;;;;;;;5024367;28;20438;-66
2023/09/01 00:55:46;;;;;;;4.53;4.10;;;;;;;;;;5020629;28;20437;-66
2023/09/01 00:58:14;;;;;;;5.18;4.03;;;;;;;;;;5029924;28;20522;-66
2023/09/01 01:00:42;;;;;;;4.60;4.10;;;;;;;;;;5030189;28;20462;-66
2023/09/01 01:03:10;;;;;;;4.30;3.85;;;;;;;;;;5025910;28;20514;-67
2023/09/01 01:05:57;;;;;;;6.00;4.10;;;;;;;;;;5029329;28;20426;-66
2023/09/01 01:08:24;;;;;;;4.90;4.40;;;;;;;;;;5027730;28;20517;-67
2023/09/01 01:11:02;;;;;;;8.00;4.10;;;;;;;;;;5026580;28;20431;-67
2023/09/01 01:13:34;;;;;;;4.53;4.03;;;;;;;;;;5026848;28;20793;-67
2023/09/01 01:16:02;;;;;;;4.25;3.63;;;;;;;;;;5031773;28;20438;-67
2023/09/01 01:18:33;;;;;;;5.10;3.83;;;;;;;;;;5020260;28;20446;-66
2023/09/01 01:21:07;;;;;;;3.87;3.57;;;;;;;;;;5030354;28;20464;-67
2023/09/01 01:23:35;;;;;;;5.30;3.88;;;;;;;;;;5029694;28;20538;-67
2023/09/01 01:26:05;;;;;;;5.28;4.15;;;;;;;;;;5035479;28;20463;-67
2023/09/01 01:28:33;;;;;;;5.20;4.28;;;;;;;;;;5027971;28;20427;-67
2023/09/01 01:31:00;;;;;;;4.85;4.10;;;;;;;;;;5032679;28;20799;-67
2023/09/01 01:33:46;;;;;;;4.60;4.13;;;;;;;;;;5037843;28;20433;-67
2023/09/01 01:36:20;;;;;;;4.82;3.70;;;;;;;;;;5027624;28;20470;-67
2023/09/01 01:38:50;;;;;;;6.95;4.05;;;;;;;;;;5027909;28;20437;-67
2023/09/01 01:41:20;;;;;;;5.55;3.90;;;;;;;;;;5020433;28;20467;-68
2023/09/01 01:43:50;;;;;;;5.10;3.83;;;;;;;;;;5022779;28;20433;-67
2023/09/01 01:46:17;;;;;;;6.17;4.13;;;;;;;;;;5029840;28;20442;-67
2023/09/01 01:48:47;;;;;;;5.45;3.58;;;;;;;;;;5022900;28;21023;-67
2023/09/01 01:51:16;;;;;;;4.90;3.65;;;;;;;;;;5027477;28;20586;-67
2023/09/01 01:53:43;;;;;;;5.93;3.30;;;;;;;;;;5021376;28;20438;-67
2023/09/01 01:56:13;;;;;;;6.60;3.80;;;;;;;;;;5021390;28;20514;-67
2023/09/01 01:58:41;;;;;;;4.80;3.78;;;;;;;;;;5043586;28;20476;-67
2023/09/01 02:01:08;;;;;;;4.03;3.58;;;;;;;;;;5029933;28;20489;-67
2023/09/01 02:03:39;;;;;;;4.28;3.58;;;;;;;;;;5026865;28;20439;-67
2023/09/01 02:06:06;;;;;;;5.20;3.60;;;;;;;;;;5025545;28;20461;-67
2023/09/01 02:08:38;;;;;;;6.07;4.10;;;;;;;;;;5026500;28;20427;-67
2023/09/01 02:11:05;;;;;;;5.20;3.92;;;;;;;;;;5029173;28;20516;-67
2023/09/01 02:13:32;;;;;;;4.07;3.67;;;;;;;;;;5027900;28;20468;-67
2023/09/01 02:16:00;;;;;;;4.90;3.70;;;;;;;;;;5028174;28;20538;-67
2023/09/01 02:18:27;;;;;;;3.93;3.47;;;;;;;;;;5027952;28;20494;-66
2023/09/01 02:20:54;;;;;;;3.80;3.50;;;;;;;;;;5028980;28;20439;-67
2023/09/01 02:23:21;;;;;;;4.37;3.60;;;;;;;;;;5027657;28;20481;-67
2023/09/01 02:25:49;;;;;;;4.20;3.80;;;;;;;;;;5029633;28;20921;-67
2023/09/01 02:28:16;;;;;;;4.30;3.60;;;;;;;;;;5028597;28;20440;-68
2023/09/01 02:30:43;;;;;;;4.90;3.78;;;;;;;;;;5026079;28;20531;-68
2023/09/01 02:33:11;;;;;;;3.87;3.33;;;;;;;;;;5034666;28;20428;-67
2023/09/01 02:35:44;;;;;;;4.13;3.40;;;;;;;;;;5020126;28;20493;-68
2023/09/01 02:38:14;;;;;;;3.63;3.42;;;;;;;;;;5026631;28;20971;-68
2023/09/01 02:40:41;;;;;;;3.75;3.40;;;;;;;;;;5027843;28;20505;-67
2023/09/01 02:43:11;;;;;;;3.50;3.17;;;;;;;;;;5019897;28;20514;-68
2023/09/01 02:45:38;;;;;;;4.40;3.50;;;;;;;;;;5021649;28;20427;-65
2023/09/01 02:48:06;;;;;;;3.78;3.30;;;;;;;;;;5024810;28;20423;-67
2023/09/01 02:50:33;;;;;;;3.97;3.45;;;;;;;;;;5024976;28;20441;-67
2023/09/01 02:53:00;;;;;;;3.50;3.20;;;;;;;;;;5025534;28;20517;-67
2023/09/01 02:55:27;;;;;;;4.43;3.30;;;;;;;;;;5022635;28;20437;-68
2023/09/01 02:57:55;;;;;;;4.03;3.10;;;;;;;;;;5029029;28;20832;-67
2023/09/01 03:00:22;;;;;;;2.97;2.78;;;;;;;;;;5024200;28;20493;-67
2023/09/01 03:02:51;;;;;;;2.90;2.67;;;;;;;;;;5024236;28;21053;-67
2023/09/01 03:05:25;;;;;;;2.65;2.45;;;;;;;;;;5030391;28;20421;-68
2023/09/01 03:07:53;;;;;;;3.22;2.78;;;;;;;;;;5047845;28;20438;-67
2023/09/01 03:10:21;;;;;;;2.80;2.60;;;;;;;;;;5022446;28;20506;-66
2023/09/01 03:12:48;;;;;;;4.20;2.83;;;;;;;;;;5023624;28;20439;-68
2023/09/01 03:15:15;;;;;;;2.72;2.53;;;;;;;;;;5028368;28;20913;-68
2023/09/01 03:17:43;;;;;;;4.47;2.80;;;;;;;;;;5023053;28;20512;-68
2023/09/01 03:20:12;;;;;;;2.72;2.53;;;;;;;;;;5023684;28;20489;-67
2023/09/01 03:22:39;;;;;;;3.28;2.83;;;;;;;;;;5021011;28;20429;-67
2023/09/01 03:25:10;;;;;;;2.50;2.30;;;;;;;;;;5029147;28;20458;-68
2023/09/01 03:27:38;;;;;;;2.60;2.40;;;;;;;;;;5032319;28;20483;-68
2023/09/01 03:30:06;;;;;;;2.30;2.10;;;;;;;;;;5029197;28;20476;-68
2023/09/01 03:32:33;;;;;;;2.92;2.70;;;;;;;;;;5025350;28;20519;-69
2023/09/01 03:35:00;;;;;;;2.60;2.40;;;;;;;;;;5024837;28;20437;-67
2023/09/01 03:37:28;;;;;;;2.88;2.67;;;;;;;;;;5029411;28;20865;-67
2023/09/01 03:39:55;;;;;;;2.58;2.38;;;;;;;;;;5023917;28;20431;-68
2023/09/01 03:42:22;;;;;;;2.60;2.50;;;;;;;;;;5025224;28;20509;-68
2023/09/01 03:44:49;;;;;;;2.75;2.65;;;;;;;;;;5031643;28;20976;-68
2023/09/01 03:47:16;;;;;;;2.60;2.47;;;;;;;;;;5039484;28;20524;-67
2023/09/01 03:49:46;;;;;;;2.78;2.60;;;;;;;;;;5031950;28;20428;-67
2023/09/01 03:52:16;;;;;;;2.97;2.67;;;;;;;;;;5016154;28;20552;-67
2023/09/01 03:54:43;;;;;;;2.92;2.72;;;;;;;;;;5023365;28;20436;-67
2023/09/01 03:57:10;;;;;;;3.28;2.95;;;;;;;;;;5023344;28;20432;-67
2023/09/01 03:59:37;;;;;;;3.10;2.90;;;;;;;;;;5044193;28;20423;-66
2023/09/01 04:02:04;;;;;;;3.60;3.30;;;;;;;;;;5028297;28;20485;-68
2023/09/01 04:04:31;;;;;;;4.15;3.10;;;;;;;;;;5025613;28;20521;-68
2023/09/01 04:06:58;;;;;;;3.90;3.35;;;;;;;;;;5044634;28;20482;-68
2023/09/01 04:09:26;;;;;;;3.70;3.40;;;;;;;;;;5020818;28;20461;-67
2023/09/01 04:11:54;;;;;;;4.20;3.80;;;;;;;;;;5024402;28;20439;-68
2023/09/01 04:14:21;;;;;;;5.20;4.70;;;;;;;;;;5025924;28;21149;-67
2023/09/01 04:16:50;;;;;;;4.43;4.03;;;;;;;;;;5022355;28;20533;-68
2023/09/01 04:19:17;;;;;;;5.87;4.60;;;;;;;;;;5025478;28;20443;-67
2023/09/01 04:21:44;;;;;;;8.17;4.40;;;;;;;;;;5020056;28;21009;-67
2023/09/01 04:24:12;;;;;;;5.55;4.63;;;;;;;;;;5025225;28;20442;-66
2023/09/01 04:26:41;;;;;;;9.10;5.32;;;;;;;;;;5040119;28;20989;-66
2023/09/01 04:29:11;;;;;;;6.53;5.50;;;;;;;;;;5028625;28;20430;-67
2023/09/01 04:31:38;;;;;;;6.60;5.10;;;;;;;;;;5026718;28;20501;-67
2023/09/01 04:34:06;;;;;;;6.20;5.60;;;;;;;;;;5027869;28;20431;-67
2023/09/01 04:36:39;;;;;;;6.80;5.60;;;;;;;;;;5025292;28;20518;-67
2023/09/01 04:39:15;;;;;;;12.02;6.00;;;;;;;;;;5029561;28;20430;-67
2023/09/01 04:41:44;;;;;;;9.55;7.05;;;;;;;;;;5026768;28;21013;-67
2023/09/01 04:44:13;;;;;;;8.90;7.10;;;;;;;;;;5030372;28;20512;-68
2023/09/01 04:46:41;;;;;;;8.15;7.00;;;;;;;;;;5027938;28;20457;-67
2023/09/01 04:49:08;;;;;;;9.43;7.20;;;;;;;;;;5023522;28;20518;-68
2023/09/01 04:51:35;;;;;;;10.30;7.15;;;;;;;;;;5028620;28;20531;-68
2023/09/01 04:54:02;;;;;;;11.70;8.30;;;;;;;;;;5022890;28;20434;-67
2023/09/01 04:56:32;;;;;;;12.70;8.60;;;;;;;;;;5017922;28;20458;-67
2023/09/01 04:59:02;;;;;;;12.43;9.00;;;;;;;;;;5025963;28;20506;-67
2023/09/01 05:01:29;;;;;;;12.73;9.02;;;;;;;;;;5027787;28;20431;-68
2023/09/01 05:03:56;;;;;;;12.95;9.20;;;;;;;;;;5024862;28;20439;-67
2023/09/01 05:06:24;;;;;;;12.80;9.70;;;;;;;;;;5023238;28;21216;-66
2023/09/01 05:08:51;;;;;;;14.63;10.30;;;;;;;;;;5024369;28;20466;-67
2023/09/01 05:11:18;;;;;;;18.17;10.45;;;;;;;;;;5026046;28;20923;-67
2023/09/01 05:13:45;;;;;;;18.75;10.50;;;;;;;;;;5023429;28;20467;-67
2023/09/01 05:16:13;;;;;;;15.32;10.30;;;;;;;;;;5027558;28;20543;-68
2023/09/01 05:18:40;;;;;;;14.88;10.60;;;;;;;;;;5031736;28;20438;-67
2023/09/01 05:21:07;;;;;;;16.25;11.00;;;;;;;;;;5030713;28;20429;-67
2023/09/01 05:23:39;;;;;;;15.70;11.02;;;;;;;;;;5024482;28;20466;-68
2023/09/01 05:26:06;;;;;;;15.35;11.10;;;;;;;;;;5053596;28;20429;-67
2023/09/01 05:28:33;;;;;;;16.00;11.48;;;;;;;;;;5033156;28;20458;-67
2023/09/01 05:31:00;;;;;;;21.13;12.30;;;;;;;;;;5030525;28;20456;-66
2023/09/01 05:33:28;;;;;;;19.65;12.15;;;;;;;;;;5027768;28;20434;-65
2023/09/01 05:35:55;;;;;;;18.23;12.07;;;;;;;;;;5026969;28;20538;-66
2023/09/01 05:38:22;;;;;;;19.30;12.40;;;;;;;;;;5028061;28;20434;-66
2023/09/01 05:40:59;;;;;;;20.17;12.77;;;;;;;;;;5024783;28;20470;-67
2023/09/01 05:43:30;;;;;;;19.67;12.87;;;;;;;;;;5022669;28;20504;-67
2023/09/01 05:45:59;;;;;;;19.83;12.73;;;;;;;;;;5025455;28;20427;-67
2023/09/01 05:48:26;;;;;;;19.70;12.80;;;;;;;;;;5026715;28;20427;-68
2023/09/01 05:50:53;;;;;;;20.13;13.50;;;;;;;;;;5024301;28;20442;-68
2023/09/01 05:53:21;;;;;;;20.23;12.77;;;;;;;;;;5024900;28;20500;-67
2023/09/01 05:55:54;;;;;;;20.13;13.00;;;;;;;;;;5019627;28;20438;-67
2023/09/01 05:58:21;;;;;;;20.10;13.00;;;;;;;;;;5036736;28;20519;-67
2023/09/01 06:00:50;;;;;;;19.90;12.87;;;;;;;;;;5023261;28;20439;-67
2023/09/01 06:03:17;;;;;;;18.30;12.25;;;;;;;;;;5026865;28;20458;-67
2023/09/01 06:05:44;;;;;;;17.55;11.70;;;;;;;;;;5027443;28;20518;-67
2023/09/01 06:08:11;;;;;;;15.90;11.15;;;;;;;;;;5025529;28;20817;-66
2023/09/01 06:10:39;;;;;;;14.52;10.38;;;;;;;;;;5033006;28;20429;-66
2023/09/01 06:13:06;;;;;;;16.40;11.05;;;;;;;;;;5024871;28;20549;-67
2023/09/01 06:15:36;;;;;;;15.35;10.02;;;;;;;;;;5027469;28;20435;-67
2023/09/01 06:18:04;;;;;;;15.75;10.00;;;;;;;;;;5032556;28;20447;-67
2023/09/01 06:20:31;;;;;;;13.45;9.63;;;;;;;;;;5029453;28;20585;-67
2023/09/01 06:22:58;;;;;;;13.70;10.23;;;;;;;;;;5025376;28;20533;-67
2023/09/01 06:25:28;;;;;;;11.98;9.07;;;;;;;;;;5029963;28;20421;-67
2023/09/01 06:27:56;;;;;;;11.35;9.00;;;;;;;;;;5035464;28;20431;-67
2023/09/01 06:30:24;;;;;;;9.63;8.23;;;;;;;;;;5023934;28;20518;-67
2023/09/01 06:32:51;;;;;;;9.57;7.70;;;;;;;;;;5028326;28;20438;-67
2023/09/01 06:35:19;;;;;;;9.15;7.75;;;;;;;;;;5024190;28;20845;-68
2023/09/01 06:37:46;;;;;;;8.73;7.55;;;;;;;;;;5025483;28;20458;-67
2023/09/01 06:40:19;;;;;;;8.15;7.32;;;;;;;;;;5024459;28;20430;-67
2023/09/01 06:42:46;;;;;;;8.93;7.10;;;;;;;;;;5026583;28;20437;-68
2023/09/01 06:45:14;;;;;;;7.53;6.82;;;;;;;;;;5022206;28;20441;-68
2023/09/01 06:47:41;;;;;;;7.10;6.40;;;;;;;;;;5025481;28;20513;-68
2023/09/01 06:50:08;;;;;;;6.68;6.03;;;;;;;;;;5019455;28;20442;-68
2023/09/01 06:52:38;;;;;;;6.88;5.90;;;;;;;;;;5021031;28;20427;-68
2023/09/01 06:55:05;;;;;;;6.38;5.78;;;;;;;;;;5025934;28;20530;-68
2023/09/01 06:57:32;;;;;;;6.47;5.65;;;;;;;;;;5024866;28;20464;-68
2023/09/01 07:00:00;;;;;;;5.78;5.28;;;;;;;;;;5031969;28;20933;-68
2023/09/01 07:02:27;;;;;;;6.47;5.88;;;;;;;;;;5028178;28;20573;-68
2023/09/01 07:04:55;;;;;;;6.28;5.65;;;;;;;;;;5030001;28;20434;-68
2023/09/01 07:07:22;;;;;;;4.95;4.55;;;;;;;;;;5029534;28;21252;-68
2023/09/01 07:09:52;;;;;;;6.32;4.70;;;;;;;;;;5033630;28;20448;-68
2023/09/01 07:12:19;;;;;;;4.93;4.47;;;;;;;;;;5026143;28;20528;-68
2023/09/01 07:14:46;;;;;;;4.50;4.10;;;;;;;;;;5012886;28;20434;-68
2023/09/01 07:17:13;;;;;;;4.45;4.15;;;;;;;;;;5026860;28;20996;-68
2023/09/01 07:19:42;;;;;;;4.15;3.85;;;;;;;;;;5029383;28;20451;-68
2023/09/01 07:22:09;;;;;;;4.22;3.83;;;;;;;;;;5025948;28;20439;-68
2023/09/01 07:24:36;;;;;;;4.40;3.92;;;;;;;;;;5024575;28;20600;-68
2023/09/01 07:27:08;;;;;;;4.50;4.20;;;;;;;;;;5027626;28;20461;-68
2023/09/01 07:29:35;;;;;;;4.88;4.40;;;;;;;;;;5027005;28;20430;-68
2023/09/01 07:32:03;;;;;;;5.28;4.78;;;;;;;;;;5029364;28;20830;-68
2023/09/01 07:34:30;;;;;;;4.60;4.20;;;;;;;;;;5025743;28;20431;-68
2023/09/01 07:36:57;;;;;;;5.23;4.80;;;;;;;;;;5024147;28;20445;-68
2023/09/01 07:39:24;;;;;;;5.93;4.78;;;;;;;;;;5038649;28;20433;-68
2023/09/01 07:41:51;;;;;;;6.30;5.68;;;;;;;;;;5024709;28;20434;-68
2023/09/01 07:44:20;;;;;;;6.28;5.68;;;;;;;;;;5030198;28;20596;-68
2023/09/01 07:46:47;;;;;;;8.63;5.88;;;;;;;;;;5026202;28;20445;-67
2023/09/01 07:49:14;;;;;;;7.55;6.20;;;;;;;;;;5024932;28;20485;-68
2023/09/01 07:51:43;;;;;;;8.80;6.97;;;;;;;;;;5026625;28;20433;-68
2023/09/01 07:54:10;;;;;;;8.00;6.80;;;;;;;;;;5025653;28;20435;-68
2023/09/01 07:56:39;;;;;;;10.13;6.75;;;;;;;;;;5024773;28;20813;-68
2023/09/01 07:59:07;;;;;;;7.20;6.50;;;;;;;;;;5025373;28;20435;-68
2023/09/01 08:01:34;;;;;;;7.20;6.55;;;;;;;;;;5023931;28;20543;-67
2023/09/01 08:04:02;;;;;;;8.65;7.05;;;;;;;;;;5024696;28;20443;-68
2023/09/01 08:06:32;;;;;;;7.25;6.55;;;;;;;;;;5026443;28;20914;-67
2023/09/01 08:08:59;;;;;;;8.75;6.95;;;;;;;;;;5027639;28;20430;-68
2023/09/01 08:11:29;;;;;;;7.43;6.63;;;;;;;;;;5020811;28;20959;-68
2023/09/01 08:13:56;;;;;;;7.22;6.53;;;;;;;;;;5024967;28;20434;-68
2023/09/01 08:16:23;;;;;;;7.10;6.40;;;;;;;;;;5024103;28;20522;-67
2023/09/01 08:18:50;;;;;;;7.60;6.70;;;;;;;;;;5025512;28;20442;-68
2023/09/01 08:21:20;;;;;;;7.60;6.82;;;;;;;;;;5026071;28;20458;-68
2023/09/01 08:23:49;;;;;;;7.28;6.20;;;;;;;;;;5023967;28;20430;-68
2023/09/01 08:26:16;;;;;;;8.20;6.37;;;;;;;;;;5028081;28;20429;-68
2023/09/01 08:28:46;;;;;;;8.05;6.07;;;;;;;;;;5046141;28;20592;-68
2023/09/01 08:31:16;;;;;;;7.07;6.38;;;;;;;;;;5035847;28;20528;-68
2023/09/01 08:33:44;;;;;;;8.77;5.78;;;;;;;;;;5030636;28;20520;-68
2023/09/01 08:36:13;;;;;;;6.63;5.30;;;;;;;;;;5024009;28;20466;-68
2023/09/01 08:38:40;;;;;;;5.75;4.93;;;;;;;;;;5028455;28;20531;-68
2023/09/01 08:41:10;;;;;;;5.75;5.15;;;;;;;;;;5043745;28;20519;-68
2023/09/01 08:43:39;;;;;;;7.07;4.95;;;;;;;;;;5028226;28;20458;-68
2023/09/01 08:46:07;;;;;;;6.22;4.80;;;;;;;;;;5024995;28;21323;-68
2023/09/01 08:48:41;;;;;;;4.60;4.10;;;;;;;;;;5028276;28;20442;-68
2023/09/01 08:51:09;;;;;;;7.53;4.05;;;;;;;;;;5030648;28;20494;-68
2023/09/01 08:53:38;;;;;;;5.78;3.72;;;;;;;;;;5029634;28;20435;-68
2023/09/01 08:56:06;;;;;;;4.10;3.35;;;;;;;;;;5032344;28;20431;-68
2023/09/01 08:58:33;;;;;;;3.80;3.28;;;;;;;;;;5024051;28;20460;-68
2023/09/01 09:01:00;;;;;;;3.40;3.10;;;;;;;;;;5030674;28;20469;-68
2023/09/01 09:03:29;;;;;;;4.15;3.10;;;;;;;;;;5050218;28;20505;-68
2023/09/01 09:06:03;;;;;;;4.65;3.38;;;;;;;;;;5027413;28;20439;-68
2023/09/01 09:08:31;;;;;;;3.42;2.83;;;;;;;;;;5027648;28;20852;-68
2023/09/01 09:11:01;;;;;;;6.97;3.20;;;;;;;;;;5039823;28;20437;-68
2023/09/01 09:13:29;;;;;;;4.07;2.67;;;;;;;;;;5040734;28;20421;-68
2023/09/01 09:16:05;;;;;;;2.90;2.70;;;;;;;;;;5026119;28;20431;-68
2023/09/01 09:18:32;;;;;;;3.07;2.77;;;;;;;;;;5042529;28;20439;-68
2023/09/01 09:21:00;;;;;;;3.88;2.20;;;;;;;;;;5024482;28;20488;-68
2023/09/01 09:23:56;;;;;;;3.03;2.38;;;;;;;;;;5033317;28;20574;-68
2023/09/01 09:26:41;;;;;;;4.33;1.90;;;;;;;;;;5022570;28;20435;-68
2023/09/01 09:29:14;;;;;;;4.30;2.17;;;;;;;;;;5023267;28;20989;-68
2023/09/01 09:31:41;;;;;;;2.45;2.10;;;;;;;;;;5004196;28;20589;-68
2023/09/01 09:34:15;;;;;;;3.30;1.80;;;;;;;;;;5025488;28;20506;-68
2023/09/01 09:36:43;;;;;;;4.80;2.20;;;;;;;;;;5018508;28;20429;-68
2023/09/01 09:39:23;;;;;;;2.83;1.90;;;;;;;;;;5016694;28;20923;-68
2023/09/01 09:41:53;;;;;;;2.10;2.00;;;;;;;;;;5026254;28;20458;-68
2023/09/01 09:44:23;;;;;;;2.10;1.80;;;;;;;;;;5014787;28;20439;-68
2023/09/01 09:46:50;;;;;;;2.13;1.73;;;;;;;;;;5018888;28;20515;-68
2023/09/01 09:49:22;;;;;;;1.83;1.60;;;;;;;;;;5031286;28;20537;-68
2023/09/01 09:51:52;;;;;;;1.65;1.50;;;;;;;;;;5027856;28;20511;-67
2023/09/01 09:54:23;;;;;;;2.90;1.60;;;;;;;;;;5017343;28;20517;-69
2023/09/01 09:56:51;;;;;;;1.80;1.70;;;;;;;;;;5024721;28;20521;-68
2023/09/01 09:59:24;;;;;;;2.17;1.75;;;;;;;;;;5025141;28;20431;-68
2023/09/01 10:01:53;;;;;;;2.35;2.00;;;;;;;;;;5026478;28;20841;-68
2023/09/01 10:04:20;;;;;;;3.38;1.77;;;;;;;;;;5020461;28;20457;-68
2023/09/01 10:06:51;;;;;;;6.40;1.90;;;;;;;;;;5033287;28;20483;-68
2023/09/01 10:09:18;;;;;;;2.30;1.52;;;;;;;;;;5028385;28;20430;-68
2023/09/01 10:11:46;;;;;;;3.63;1.65;;;;;;;;;;5028722;28;20980;-68
2023/09/01 10:14:14;;;;;;;3.20;1.55;;;;;;;;;;5025182;28;20442;-68
2023/09/01 10:16:45;;;;;;;1.95;1.67;;;;;;;;;;5023521;28;21111;-67
2023/09/01 10:19:19;;;;;;;2.28;1.80;;;;;;;;;;5026641;28;20437;-67
2023/09/01 10:21:46;;;;;;;1.55;1.45;;;;;;;;;;5027090;28;20441;-68
2023/09/01 10:24:16;;;;;;;2.28;1.70;;;;;;;;;;5025780;28;21539;-68
2023/09/01 10:26:44;;;;;;;2.35;1.52;;;;;;;;;;5027407;28;20467;-70
2023/09/01 10:29:12;;;;;;;1.40;1.30;;;;;;;;;;5027964;28;20488;-68
2023/09/01 10:31:47;;;;;;;12.90;11.77;;;;;;;;;;5026893;28;20436;-67
2023/09/01 10:34:15;;;;;;;54.58;50.22;;;;;;;;;;5026175;28;20431;-67
2023/09/01 10:36:49;;;;;;;392.75;361.17;;;;;;;;;;5025405;28;20473;-69
2023/09/01 10:39:19;;;;;;;2.33;1.92;;;;;;;;;;5027858;28;20553;-67
2023/09/01 10:42:07;;;;;;;48.63;44.08;;;;;;;;;;5029267;28;20426;-68
2023/09/01 10:44:43;;;;;;;2.65;1.33;;;;;;;;;;5021778;28;20549;-67
2023/09/01 10:47:29;;;;;;;2.60;1.40;;;;;;;;;;5025446;28;20517;-67
2023/09/01 10:49:57;;;;;;;5.95;1.42;;;;;;;;;;5026029;28;20439;-67
2023/09/01 10:52:26;;;;;;;1.00;1.00;;;;;;;;;;5027941;28;20434;-69
2023/09/01 10:55:00;;;;;;;2.67;1.30;;;;;;;;;;5030015;28;20437;-68
2023/09/01 10:57:41;;;;;;;46.40;42.15;;;;;;;;;;5028772;28;20509;-68
2023/09/01 11:00:26;;;;;;;2.40;1.40;;;;;;;;;;5026630;28;20462;-66
2023/09/01 11:02:54;;;;;;;2.00;1.33;;;;;;;;;;5028610;28;20434;-67
2023/09/01 11:05:39;;;;;;;30.80;28.02;;;;;;;;;;5039843;28;20464;-68
2023/09/01 11:08:15;;;;;;;3.03;1.98;;;;;;;;;;5025479;28;20897;-68
2023/09/01 11:10:44;;;;;;;1.60;1.50;;;;;;;;;;5025455;28;20457;-70
2023/09/01 11:13:18;;;;;;;3.65;2.53;;;;;;;;;;5025091;28;20778;-68
2023/09/01 11:15:50;;;;;;;391.13;352.13;;;;;;;;;;5027018;28;20509;-70
2023/09/01 11:18:19;;;;;;;9.43;8.40;;;;;;;;;;5027485;28;20528;-69
2023/09/01 11:20:47;;;;;;;29.73;26.80;;;;;;;;;;5017386;28;20501;-69
2023/09/01 11:23:19;;;;;;;12.52;11.63;;;;;;;;;;5024888;28;20438;-68
2023/09/01 11:25:47;;;;;;;12.43;11.43;;;;;;;;;;5020745;28;20487;-69
2023/09/01 11:28:14;;;;;;;2.08;1.45;;;;;;;;;;5028711;28;20427;-69
2023/09/01 11:30:52;;;;;;;66.05;60.22;;;;;;;;;;5028993;28;20429;-69
2023/09/01 11:33:21;;;;;;;1.60;1.50;;;;;;;;;;5043106;28;20446;-69
2023/09/01 11:35:49;;;;;;;2.60;1.55;;;;;;;;;;5025556;28;20473;-69
2023/09/01 11:38:18;;;;;;;3.47;1.42;;;;;;;;;;5024190;28;20434;-69
2023/09/01 11:40:46;;;;;;;1.40;1.30;;;;;;;;;;5032498;28;20458;-69
2023/09/01 11:43:13;;;;;;;85.70;79.88;;;;;;;;;;5024370;28;20496;-72
2023/09/01 11:45:48;;;;;;;126.60;118.55;;;;;;;;;;5056784;28;20443;-70
2023/09/01 11:48:23;;;;;;;6.20;5.80;;;;;;;;;;5039055;28;20433;-69
2023/09/01 11:50:53;;;;;;;0.70;0.70;;;;;;;;;;5024107;28;20438;-69
2023/09/01 11:53:23;;;;;;;0.90;0.70;;;;;;;;;;5023927;28;20484;-72
2023/09/01 11:55:58;;;;;;;0.80;0.57;;;;;;;;;;5018243;28;20448;-71
2023/09/01 11:58:26;;;;;;;0.90;0.57;;;;;;;;;;5040788;28;20569;-70
2023/09/01 12:00:53;;;;;;;0.90;0.40;;;;;;;;;;5025794;28;20431;-71
2023/09/01 12:03:21;;;;;;;0.45;0.45;;;;;;;;;;5028639;28;20433;-70
2023/09/01 12:05:49;;;;;;;0.50;0.50;;;;;;;;;;5028771;28;20637;-69
2023/09/01 12:08:25;;;;;;;0.68;0.68;;;;;;;;;;5026336;28;20426;-70
2023/09/01 12:11:07;;;;;;;0.50;0.50;;;;;;;;;;5028815;28;20431;-70
2023/09/01 12:13:34;;;;;;;0.73;0.60;;;;;;;;;;5025461;28;20516;-70
2023/09/01 12:16:04;;;;;;;0.50;0.47;;;;;;;;;;5044930;28;20435;-69
2023/09/01 12:18:35;;;;;;;0.50;0.50;;;;;;;;;;5028276;28;20441;-70
2023/09/01 12:21:04;;;;;;;0.60;0.60;;;;;;;;;;5027763;28;20435;-70
2023/09/01 12:23:32;;;;;;;1.90;0.60;;;;;;;;;;5029589;28;20443;-70
2023/09/01 12:25:59;;;;;;;0.88;0.50;;;;;;;;;;5025600;28;20488;-72
2023/09/01 12:28:30;;;;;;;0.98;0.68;;;;;;;;;;5028967;28;20430;-70
2023/09/01 12:30:58;;;;;;;0.77;0.77;;;;;;;;;;5027060;28;20434;-70
2023/09/01 12:33:25;;;;;;;0.70;0.70;;;;;;;;;;5029716;28;20438;-70
2023/09/01 12:35:53;;;;;;;0.70;0.70;;;;;;;;;;5046308;28;20522;-72
2023/09/01 12:38:20;;;;;;;0.75;0.75;;;;;;;;;;5030469;28;20434;-70
2023/09/01 12:40:48;;;;;;;0.80;0.80;;;;;;;;;;5029098;28;20464;-71
2023/09/01 12:43:15;;;;;;;3.30;1.00;;;;;;;;;;5042469;28;20774;-71
2023/09/01 12:45:46;;;;;;;1.02;1.02;;;;;;;;;;5028763;28;20430;-70
2023/09/01 12:48:16;;;;;;;1.38;1.17;;;;;;;;;;5034189;28;21065;-69
2023/09/01 12:50:44;;;;;;;0.80;0.80;;;;;;;;;;5028097;28;20431;-70
2023/09/01 12:53:11;;;;;;;1.83;1.00;;;;;;;;;;5020591;28;20485;-70
2023/09/01 12:55:42;;;;;;;1.63;1.00;;;;;;;;;;5023023;28;20439;-70
2023/09/01 12:58:09;;;;;;;0.93;0.90;;;;;;;;;;5032796;28;20843;-70
2023/09/01 13:00:37;;;;;;;1.50;0.90;;;;;;;;;;5032153;28;20518;-70
2023/09/01 13:03:04;;;;;;;0.70;0.70;;;;;;;;;;5030802;28;20591;-70
2023/09/01 13:05:34;;;;;;;0.77;0.77;;;;;;;;;;5045591;28;20534;-67
2023/09/01 13:08:01;;;;;;;1.50;0.73;;;;;;;;;;5026168;28;20438;-66
2023/09/01 13:10:32;;;;;;;0.90;0.70;;;;;;;;;;5022646;28;20944;-67
2023/09/01 13:12:59;;;;;;;2.50;0.77;;;;;;;;;;5022526;28;20898;-68
2023/09/01 13:15:26;;;;;;;1.20;0.80;;;;;;;;;;5026727;28;20486;-68
2023/09/01 13:17:53;;;;;;;0.70;0.70;;;;;;;;;;5027446;28;20907;-67
2023/09/01 13:20:21;;;;;;;0.80;0.80;;;;;;;;;;5024597;28;20431;-67
2023/09/01 13:22:49;;;;;;;0.68;0.68;;;;;;;;;;5030845;28;20959;-68
2023/09/01 13:25:16;;;;;;;1.60;0.82;;;;;;;;;;5030382;28;20989;-67
2023/09/01 13:27:44;;;;;;;0.93;0.93;;;;;;;;;;5030076;28;20488;-68
2023/09/01 13:30:14;;;;;;;1.98;1.00;;;;;;;;;;5029331;28;20518;-71
2023/09/01 13:32:41;;;;;;;1.67;1.02;;;;;;;;;;5027716;28;20437;-68
2023/09/01 13:35:08;;;;;;;1.17;0.93;;;;;;;;;;5030138;28;20438;-68
2023/09/01 13:37:41;;;;;;;0.90;0.90;;;;;;;;;;5028231;28;20425;-68
2023/09/01 13:40:08;;;;;;;1.45;0.70;;;;;;;;;;5038989;28;20432;-67
2023/09/01 13:42:35;;;;;;;1.15;0.80;;;;;;;;;;5032355;28;20475;-68
2023/09/01 13:45:03;;;;;;;3.30;1.00;;;;;;;;;;5027477;28;20458;-68
2023/09/01 13:47:30;;;;;;;2.25;0.90;;;;;;;;;;5026832;28;20513;-68
2023/09/01 13:49:57;;;;;;;344.58;315.73;;;;;;;;;;5026808;28;20514;-67
2023/09/01 13:52:24;;;;;;;0.70;0.70;;;;;;;;;;5027205;28;21005;-68
2023/09/01 13:54:52;;;;;;;3.38;1.00;;;;;;;;;;5028607;28;21204;-68
2023/09/01 13:57:20;;;;;;;0.77;0.60;;;;;;;;;;5033368;28;20430;-67
2023/09/01 13:59:47;;;;;;;1.38;0.70;;;;;;;;;;5032470;28;20994;-68
2023/09/01 14:02:15;;;;;;;0.50;0.50;;;;;;;;;;5032306;28;20430;-68
2023/09/01 14:04:45;;;;;;;2.95;0.50;;;;;;;;;;5031769;28;20819;-68
2023/09/01 14:07:16;;;;;;;0.80;0.80;;;;;;;;;;5027289;28;20489;-68
2023/09/01 14:09:44;;;;;;;0.98;0.60;;;;;;;;;;5025979;28;20427;-67
2023/09/01 14:12:11;;;;;;;0.95;0.60;;;;;;;;;;5026223;28;20458;-67
2023/09/01 14:14:41;;;;;;;1.25;0.50;;;;;;;;;;5026353;28;21920;-68
2023/09/01 14:17:08;;;;;;;0.60;0.60;;;;;;;;;;5026187;28;20434;-68
2023/09/01 14:19:39;;;;;;;0.70;0.70;;;;;;;;;;5027291;28;20435;-67
2023/09/01 14:22:13;;;;;;;4.07;0.85;;;;;;;;;;5026930;28;20437;-68
2023/09/01 14:24:40;;;;;;;0.60;0.60;;;;;;;;;;5030875;28;20905;-67
2023/09/01 14:27:07;;;;;;;0.60;0.57;;;;;;;;;;5025792;28;20459;-67
2023/09/01 14:29:36;;;;;;;1.55;0.60;;;;;;;;;;5021081;28;20901;-67
2023/09/01 14:32:06;;;;;;;0.87;0.60;;;;;;;;;;5027215;28;20458;-67
2023/09/01 14:34:34;;;;;;;1.58;0.63;;;;;;;;;;5025513;28;20489;-68
2023/09/01 14:37:01;;;;;;;1.10;0.57;;;;;;;;;;5032764;28;20421;-67
2023/09/01 14:39:28;;;;;;;0.85;0.52;;;;;;;;;;5030500;28;20551;-67
2023/09/01 14:41:55;;;;;;;0.60;0.60;;;;;;;;;;5026357;28;20518;-68
2023/09/01 14:44:23;;;;;;;0.60;0.60;;;;;;;;;;5030649;28;20504;-68
2023/09/01 14:46:50;;;;;;;0.65;0.65;;;;;;;;;;5024402;28;20434;-67
2023/09/01 14:49:17;;;;;;;0.75;0.70;;;;;;;;;;5025012;28;20487;-67